createdAt,value
2024-02-13T00:01:43.768Z,101281.16
2024-02-13T00:04:16.003Z,101274.19
2024-02-13T00:06:43.194Z,101274.22
2024-02-13T00:09:10.266Z,101290.78
2024-02-13T00:11:36.912Z,101289.19
2024-02-13T00:14:08.841Z,101289.13
2024-02-13T00:16:39.957Z,101292.44
2024-02-13T00:19:06.713Z,101297.66
2024-02-13T00:21:34.204Z,101303.53
2024-02-13T00:24:01.216Z,101303.88
2024-02-13T00:26:27.927Z,101302.13
2024-02-13T00:28:54.525Z,101312.50
2024-02-13T00:31:22.482Z,101316.84
2024-02-13T00:33:49.706Z,101311.72
2024-02-13T00:36:16.999Z,101310.78
2024-02-13T00:38:45.070Z,101323.53
2024-02-13T00:41:11.771Z,101324.44
2024-02-13T00:43:38.422Z,101322.00
2024-02-13T00:46:05.183Z,101322.19
2024-02-13T00:48:33.390Z,101323.19
2024-02-13T00:51:00.065Z,101332.94
2024-02-13T00:53:26.772Z,101322.28
2024-02-13T00:55:53.687Z,101325.78
2024-02-13T00:58:20.375Z,101333.78
2024-02-13T01:00:47.107Z,101338.88
2024-02-13T01:03:13.742Z,101336.94
2024-02-13T01:05:45.220Z,101333.50
2024-02-13T01:08:11.949Z,101333.19
2024-02-13T01:10:38.674Z,101328.66
2024-02-13T01:13:06.085Z,101329.53
2024-02-13T01:15:33.192Z,101332.41
2024-02-13T01:18:00.435Z,101331.66
2024-02-13T01:20:27.214Z,101338.25
2024-02-13T01:22:55.362Z,101349.34
2024-02-13T01:25:22.015Z,101344.50
2024-02-13T01:27:48.731Z,101345.44
2024-02-13T01:30:15.482Z,101339.16
2024-02-13T01:32:42.360Z,101352.00
2024-02-13T01:35:10.035Z,101351.28
2024-02-13T01:37:36.768Z,101342.63
2024-02-13T01:40:06.886Z,101342.63
2024-02-13T01:42:38.438Z,101349.44
2024-02-13T01:45:06.945Z,101349.44
2024-02-13T01:47:33.648Z,101353.84
2024-02-13T01:50:00.375Z,101358.81
2024-02-13T01:52:27.260Z,101361.53
2024-02-13T01:54:53.855Z,101363.78
2024-02-13T01:57:21.854Z,101367.19
2024-02-13T01:59:48.661Z,101369.97
2024-02-13T02:02:15.411Z,101362.84
2024-02-13T02:04:42.351Z,101364.88
2024-02-13T02:07:09.189Z,101362.19
2024-02-13T02:09:36.130Z,101364.91
2024-02-13T02:12:03.012Z,101380.41
2024-02-13T02:14:31.322Z,101367.50
2024-02-13T02:17:07.508Z,101372.69
2024-02-13T02:19:34.804Z,101372.00
2024-02-13T02:22:01.376Z,101370.19
2024-02-13T02:24:27.977Z,101369.22
2024-02-13T02:26:57.913Z,101370.03
2024-02-13T02:29:26.176Z,101374.41
2024-02-13T02:31:52.843Z,101370.09
2024-02-13T02:34:22.221Z,101369.25
2024-02-13T02:36:52.924Z,101375.88
2024-02-13T02:39:20.080Z,101379.09
2024-02-13T02:41:50.881Z,101369.09
2024-02-13T02:44:20.226Z,101372.91
2024-02-13T02:46:48.536Z,101379.41
2024-02-13T02:49:17.057Z,101377.50
2024-02-13T02:51:43.677Z,101376.69
2024-02-13T02:54:10.398Z,101378.56
2024-02-13T02:56:40.124Z,101376.72
2024-02-13T02:59:06.816Z,101380.06
2024-02-13T03:01:35.440Z,101374.06
2024-02-13T03:04:05.868Z,101377.59
2024-02-13T03:06:34.916Z,101379.00
2024-02-13T03:09:01.773Z,101382.75
2024-02-13T03:11:28.447Z,101381.03
2024-02-13T03:13:55.089Z,101384.41
2024-02-13T03:16:21.659Z,101375.81
2024-02-13T03:18:49.704Z,101382.66
2024-02-13T03:21:16.337Z,101382.66
2024-02-13T03:23:43.942Z,101384.56
2024-02-13T03:26:10.387Z,101387.75
2024-02-13T03:28:37.648Z,101387.72
2024-02-13T03:31:06.002Z,101383.50
2024-02-13T03:33:33.088Z,101388.44
2024-02-13T03:36:02.552Z,101386.34
2024-02-13T03:38:29.159Z,101389.06
2024-02-13T03:40:57.164Z,101386.56
2024-02-13T03:43:23.817Z,101386.09
2024-02-13T03:45:50.421Z,101360.50
2024-02-13T03:48:18.023Z,101393.06
2024-02-13T03:50:44.850Z,101393.25
2024-02-13T03:53:15.727Z,101395.72
2024-02-13T03:55:42.583Z,101398.38
2024-02-13T03:58:09.201Z,101407.13
2024-02-13T04:00:36.205Z,101406.03
2024-02-13T04:03:02.841Z,101403.53
2024-02-13T04:05:29.941Z,101415.22
2024-02-13T04:07:56.916Z,101414.13
2024-02-13T04:10:25.060Z,101407.22
2024-02-13T04:12:51.819Z,101411.53
2024-02-13T04:15:18.491Z,101410.91
2024-02-13T04:17:45.741Z,101407.53
2024-02-13T04:20:12.795Z,101410.19
2024-02-13T04:22:39.526Z,101411.03
2024-02-13T04:25:07.345Z,101414.47
2024-02-13T04:27:35.943Z,101419.78
2024-02-13T04:30:03.525Z,101425.81
2024-02-13T04:32:30.380Z,101428.31
2024-02-13T04:34:57.591Z,101437.00
2024-02-13T04:37:24.453Z,101441.66
2024-02-13T04:39:51.063Z,101431.03
2024-02-13T04:42:30.416Z,101425.81
2024-02-13T04:44:58.809Z,101429.34
2024-02-13T04:47:25.782Z,101437.81
2024-02-13T04:49:52.408Z,101433.66
2024-02-13T04:52:19.141Z,101424.28
2024-02-13T04:54:45.798Z,101424.38
2024-02-13T04:57:12.908Z,101433.44
2024-02-13T04:59:49.173Z,101426.22
2024-02-13T05:02:19.241Z,101429.72
2024-02-13T05:05:05.011Z,101426.38
2024-02-13T05:07:31.678Z,101437.28
2024-02-13T05:09:58.337Z,101426.09
2024-02-13T05:12:25.256Z,101444.16
2024-02-13T05:14:53.677Z,101435.72
2024-02-13T05:17:22.549Z,101443.78
2024-02-13T05:19:51.929Z,101439.38
2024-02-13T05:22:18.607Z,101437.47
2024-02-13T05:24:45.189Z,101443.69
2024-02-13T05:27:11.856Z,101434.13
2024-02-13T05:29:42.847Z,101410.38
2024-02-13T05:32:09.749Z,101426.25
2024-02-13T05:34:38.211Z,101437.72
2024-02-13T05:37:06.341Z,101442.81
2024-02-13T05:39:32.922Z,101445.63
2024-02-13T05:41:59.617Z,101440.75
2024-02-13T05:44:26.246Z,101443.31
2024-02-13T05:46:52.812Z,101441.59
2024-02-13T05:49:19.434Z,101448.41
2024-02-13T05:51:47.414Z,101442.34
2024-02-13T05:54:15.435Z,101443.44
2024-02-13T05:56:42.245Z,101438.19
2024-02-13T05:59:10.368Z,101448.75
2024-02-13T06:01:37.159Z,101447.88
2024-02-13T06:04:07.432Z,101456.72
2024-02-13T06:06:38.561Z,101458.22
2024-02-13T06:09:07.739Z,101453.06
2024-02-13T06:11:37.556Z,101454.75
2024-02-13T06:14:04.260Z,101451.44
2024-02-13T06:16:31.302Z,101453.53
2024-02-13T06:18:58.012Z,101454.56
2024-02-13T06:21:27.351Z,101454.16
2024-02-13T06:23:54.508Z,101456.03
2024-02-13T06:26:22.506Z,101468.91
2024-02-13T06:28:49.233Z,101467.09
2024-02-13T06:31:16.470Z,101467.03
2024-02-13T06:33:43.511Z,101476.69
2024-02-13T06:36:11.366Z,101462.22
2024-02-13T06:38:37.995Z,101465.59
2024-02-13T06:41:07.708Z,101424.00
2024-02-13T06:43:36.092Z,101455.53
2024-02-13T06:46:02.826Z,101465.72
2024-02-13T06:48:29.712Z,101470.91
2024-02-13T06:50:56.454Z,101476.25
2024-02-13T06:53:23.770Z,101470.06
2024-02-13T06:55:50.364Z,101471.81
2024-02-13T06:58:18.450Z,101473.25
2024-02-13T07:00:46.554Z,101475.63
2024-02-13T07:03:13.288Z,101474.28
2024-02-13T07:05:39.958Z,101483.88
2024-02-13T07:08:07.253Z,101491.59
2024-02-13T07:10:35.096Z,101500.66
2024-02-13T07:13:01.726Z,101491.13
2024-02-13T07:15:28.349Z,101497.06
2024-02-13T07:18:00.608Z,101493.75
2024-02-13T07:20:29.518Z,101495.22
2024-02-13T07:22:56.372Z,101497.69
2024-02-13T07:25:23.100Z,101503.56
2024-02-13T07:27:52.672Z,101507.88
2024-02-13T07:30:19.622Z,101517.19
2024-02-13T07:32:47.346Z,101516.16
2024-02-13T07:35:15.833Z,101514.44
2024-02-13T07:37:42.723Z,101509.47
2024-02-13T07:40:09.751Z,101519.75
2024-02-13T07:42:36.337Z,101521.56
2024-02-13T07:45:04.729Z,101522.75
2024-02-13T07:47:31.528Z,101525.88
2024-02-13T07:50:01.168Z,101531.19
2024-02-13T07:52:29.159Z,101525.19
2024-02-13T07:54:55.705Z,101526.94
2024-02-13T07:57:22.646Z,101524.97
2024-02-13T07:59:55.827Z,101533.59
2024-02-13T08:02:24.436Z,101528.13
2024-02-13T08:04:52.625Z,101528.91
2024-02-13T08:07:19.434Z,101528.06
2024-02-13T08:09:47.766Z,101537.53
2024-02-13T08:12:14.550Z,101542.09
2024-02-13T08:14:41.302Z,101540.91
2024-02-13T08:17:09.591Z,101547.13
2024-02-13T08:19:37.752Z,101545.84
2024-02-13T08:22:04.813Z,101548.56
2024-02-13T08:24:32.039Z,101542.13
2024-02-13T08:27:00.167Z,101547.16
2024-02-13T08:29:29.100Z,101549.09
2024-02-13T08:31:57.910Z,101548.06
2024-02-13T08:34:25.491Z,101550.72
2024-02-13T08:36:53.353Z,101547.97
2024-02-13T08:39:19.926Z,101560.06
2024-02-13T08:41:46.591Z,101563.00
2024-02-13T08:44:14.672Z,101561.00
2024-02-13T08:46:41.387Z,101558.53
2024-02-13T08:49:08.092Z,101564.03
2024-02-13T08:51:37.987Z,101558.50
2024-02-13T08:54:05.846Z,101556.69
2024-02-13T08:56:32.526Z,101554.84
2024-02-13T08:59:00.036Z,101563.25
2024-02-13T09:01:27.875Z,101557.94
2024-02-13T09:03:54.514Z,101566.16
2024-02-13T09:06:21.584Z,101558.81
2024-02-13T09:08:48.719Z,101557.38
2024-02-13T09:11:15.552Z,101562.28
2024-02-13T09:13:42.525Z,101567.13
2024-02-13T09:16:12.326Z,101573.78
2024-02-13T09:18:42.496Z,101581.00
2024-02-13T09:21:11.205Z,101577.75
2024-02-13T09:23:38.146Z,101576.03
2024-02-13T09:26:05.427Z,101576.78
2024-02-13T09:28:32.442Z,101583.53
2024-02-13T09:30:59.394Z,101570.44
2024-02-13T09:33:27.322Z,101577.25
2024-02-13T09:35:56.055Z,101581.50
2024-02-13T09:38:23.155Z,101577.97
2024-02-13T09:40:50.231Z,101577.19
2024-02-13T09:43:17.229Z,101581.28
2024-02-13T09:45:45.582Z,101583.59
2024-02-13T09:48:26.872Z,101585.06
2024-02-13T09:50:59.475Z,101585.63
2024-02-13T09:53:30.422Z,101596.81
2024-02-13T09:56:00.377Z,101598.84
2024-02-13T09:58:27.302Z,101589.66
2024-02-13T10:00:58.497Z,101590.81
2024-02-13T10:03:27.321Z,101587.91
2024-02-13T10:05:55.623Z,101587.44
2024-02-13T10:08:28.254Z,101579.75
2024-02-13T10:11:00.919Z,101587.25
2024-02-13T10:13:31.648Z,101580.94
2024-02-13T10:15:58.244Z,101581.84
2024-02-13T10:18:26.286Z,101580.75
2024-02-13T10:20:53.070Z,101581.75
2024-02-13T10:23:24.610Z,101578.00
2024-02-13T10:25:51.332Z,101573.47
2024-02-13T10:28:18.351Z,101578.56
2024-02-13T10:30:49.785Z,101584.59
2024-02-13T10:33:16.992Z,101580.22
2024-02-13T10:35:43.890Z,101597.75
2024-02-13T10:38:11.536Z,101596.25
2024-02-13T10:40:40.749Z,101585.56
2024-02-13T10:43:13.363Z,101592.94
2024-02-13T10:45:40.293Z,101587.53
2024-02-13T10:48:13.681Z,101591.03
2024-02-13T10:50:42.099Z,101595.88
2024-02-13T10:53:09.122Z,101581.00
2024-02-13T10:55:36.038Z,101578.91
2024-02-13T10:58:11.658Z,101576.78
2024-02-13T11:00:41.244Z,101567.50
2024-02-13T11:03:09.066Z,101569.75
2024-02-13T11:05:37.191Z,101576.31
2024-02-13T11:08:04.424Z,101565.28
2024-02-13T11:10:35.859Z,101559.31
2024-02-13T11:13:07.078Z,101558.38
2024-02-13T11:15:34.439Z,101557.97
2024-02-13T11:18:02.185Z,101567.78
2024-02-13T11:20:31.572Z,101581.53
2024-02-13T11:23:00.793Z,101568.00
2024-02-13T11:25:28.311Z,101570.19
2024-02-13T11:27:59.056Z,101577.41
2024-02-13T11:30:29.406Z,101579.06
2024-02-13T11:33:00.185Z,101572.94
2024-02-13T11:35:31.482Z,101571.06
2024-02-13T11:38:02.186Z,101561.34
2024-02-13T11:40:28.841Z,101566.00
2024-02-13T11:42:55.429Z,101571.16
2024-02-13T11:45:22.743Z,101557.66
2024-02-13T11:47:51.166Z,101568.47
2024-02-13T11:50:21.215Z,101576.25
2024-02-13T11:52:49.240Z,101569.69
2024-02-13T11:55:16.044Z,101563.28
2024-02-13T11:57:45.910Z,101566.13
2024-02-13T12:00:20.214Z,101557.41
2024-02-13T12:02:50.639Z,101552.72
2024-02-13T12:05:20.479Z,101555.84
2024-02-13T12:07:47.765Z,101553.38
2024-02-13T12:10:15.878Z,101550.00
2024-02-13T12:12:42.752Z,101558.47
2024-02-13T12:15:11.695Z,101553.53
2024-02-13T12:20:20.125Z,101548.88
2024-02-13T12:22:48.429Z,101536.69
2024-02-13T12:25:19.328Z,101543.00
2024-02-13T12:27:46.136Z,101538.28
2024-02-13T12:30:13.229Z,101541.59
2024-02-13T12:32:41.065Z,101540.88
2024-02-13T12:35:22.543Z,101541.94
2024-02-13T12:37:53.228Z,101538.50
2024-02-13T12:40:21.439Z,101537.84
2024-02-13T12:42:48.129Z,101536.25
2024-02-13T12:45:14.850Z,101534.13
2024-02-13T12:47:42.815Z,101536.47
2024-02-13T12:50:15.190Z,101535.56
2024-02-13T12:52:41.930Z,101533.56
2024-02-13T12:55:13.586Z,101527.25
2024-02-13T12:57:41.850Z,101526.19
2024-02-13T13:00:15.804Z,101523.47
2024-02-13T13:02:42.868Z,101511.03
2024-02-13T13:05:14.138Z,101513.78
2024-02-13T13:07:41.872Z,101513.25
2024-02-13T13:10:14.494Z,101505.03
2024-02-13T13:12:45.725Z,101508.19
2024-02-13T13:15:19.811Z,101496.31
2024-02-13T13:17:49.506Z,101499.63
2024-02-13T13:20:19.534Z,101498.13
2024-02-13T13:22:48.890Z,101504.13
2024-02-13T13:25:25.097Z,101511.69
2024-02-13T13:27:52.898Z,101502.13
2024-02-13T13:30:20.760Z,101486.69
2024-02-13T13:32:48.240Z,101504.63
2024-02-13T13:35:21.224Z,101509.00
2024-02-13T13:37:48.890Z,101506.63
2024-02-13T13:40:18.151Z,101507.41
2024-02-13T13:42:44.914Z,101497.78
2024-02-13T13:45:15.603Z,101488.13
2024-02-13T13:47:45.775Z,101493.56
2024-02-13T13:50:13.006Z,101495.59
2024-02-13T13:52:39.553Z,101497.41
2024-02-13T13:55:07.548Z,101492.94
2024-02-13T13:57:35.533Z,101489.44
2024-02-13T14:00:09.650Z,101496.16
2024-02-13T14:02:37.711Z,101497.22
2024-02-13T14:05:05.008Z,101493.53
2024-02-13T14:07:31.425Z,101495.97
2024-02-13T14:09:58.049Z,101492.19
2024-02-13T14:12:24.610Z,101489.94
2024-02-13T14:14:53.896Z,101486.97
2024-02-13T14:17:20.745Z,101483.16
2024-02-13T14:19:47.402Z,101482.06
2024-02-13T14:22:15.962Z,101486.38
2024-02-13T14:24:42.614Z,101466.16
2024-02-13T14:27:11.844Z,101482.72
2024-02-13T14:29:38.955Z,101488.44
2024-02-13T14:32:07.532Z,101486.63
2024-02-13T14:34:36.697Z,101489.44
2024-02-13T14:37:07.102Z,101485.72
2024-02-13T14:39:33.739Z,101487.28
2024-02-13T14:42:01.180Z,101486.44
2024-02-13T14:44:28.066Z,101481.25
2024-02-13T14:46:58.380Z,101474.41
2024-02-13T14:51:54.956Z,101485.06
2024-02-13T14:54:22.524Z,101478.53
2024-02-13T14:56:50.601Z,101486.81
2024-02-13T14:59:17.446Z,101474.41
2024-02-13T15:01:44.203Z,101477.44
2024-02-13T15:04:10.911Z,101476.69
2024-02-13T15:06:39.816Z,101474.22
2024-02-13T15:09:11.059Z,101483.38
2024-02-13T15:11:38.452Z,101469.50
2024-02-13T15:14:06.821Z,101478.78
2024-02-13T15:16:34.322Z,101479.38
2024-02-13T15:19:02.779Z,101480.06
2024-02-13T15:21:29.619Z,101477.28
2024-02-13T15:23:57.635Z,101489.22
2024-02-13T15:26:26.193Z,101483.72
2024-02-13T15:28:53.967Z,101487.19
2024-02-13T15:31:20.863Z,101484.66
2024-02-13T15:33:50.264Z,101484.97
2024-02-13T15:36:33.018Z,101484.28
2024-02-13T15:39:19.765Z,101475.41
2024-02-13T15:42:19.105Z,101433.28
2024-02-13T15:45:04.649Z,101478.13
2024-02-13T15:47:34.930Z,101471.88
2024-02-13T15:50:02.265Z,101475.63
2024-02-13T15:52:28.900Z,101476.50
2024-02-13T15:54:57.366Z,101470.19
2024-02-13T15:57:25.398Z,101469.09
2024-02-13T15:59:53.125Z,101479.22
2024-02-13T16:02:20.876Z,101479.31
2024-02-13T16:04:48.245Z,101479.22
2024-02-13T16:07:16.684Z,101469.09
2024-02-13T16:09:44.980Z,101476.34
2024-02-13T16:12:12.990Z,101482.13
2024-02-13T16:14:39.759Z,101471.88
2024-02-13T16:17:06.520Z,101477.56
2024-02-13T16:19:33.369Z,101471.66
2024-02-13T16:22:00.130Z,101466.56
2024-02-13T16:24:26.759Z,101476.50
2024-02-13T16:26:54.636Z,101471.28
2024-02-13T16:29:28.558Z,101467.38
2024-02-13T16:31:55.767Z,101478.94
2024-02-13T16:34:22.878Z,101477.69
2024-02-13T16:36:49.745Z,101477.88
2024-02-13T16:39:18.728Z,101476.03
2024-02-13T16:41:50.084Z,101478.63
2024-02-13T16:44:18.868Z,101482.31
2024-02-13T16:46:49.437Z,101476.50
2024-02-13T16:49:16.692Z,101475.88
2024-02-13T16:51:43.248Z,101476.72
2024-02-13T16:54:11.056Z,101469.09
2024-02-13T16:56:37.745Z,101467.25
2024-02-13T16:59:05.284Z,101472.72
2024-02-13T17:01:32.047Z,101471.03
2024-02-13T17:04:01.986Z,101468.94
2024-02-13T17:06:31.924Z,101469.25
2024-02-13T17:08:58.884Z,101469.41
2024-02-13T17:11:25.943Z,101471.56
2024-02-13T17:13:52.599Z,101468.19
2024-02-13T17:16:20.178Z,101470.03
2024-02-13T17:18:47.248Z,101472.88
2024-02-13T17:21:17.020Z,101466.78
2024-02-13T17:23:44.801Z,101464.63
2024-02-13T17:26:11.539Z,101467.41
2024-02-13T17:28:39.895Z,101476.50
2024-02-13T17:31:06.445Z,101472.78
2024-02-13T17:33:33.153Z,101473.69
2024-02-13T17:36:00.040Z,101469.50
2024-02-13T17:38:28.853Z,101476.16
2024-02-13T17:40:55.591Z,101468.91
2024-02-13T17:43:22.204Z,101466.81
2024-02-13T17:45:48.898Z,101459.53
2024-02-13T17:48:15.824Z,101461.84
2024-02-13T17:50:42.602Z,101461.31
2024-02-13T17:53:09.282Z,101463.31
2024-02-13T17:55:38.434Z,101458.03
2024-02-13T17:58:05.200Z,101463.31
2024-02-13T18:00:35.804Z,101464.59
2024-02-13T18:03:05.558Z,101466.75
2024-02-13T18:05:32.395Z,101463.75
2024-02-13T18:08:04.442Z,101464.59
2024-02-13T18:10:32.082Z,101463.75
2024-02-13T18:13:00.180Z,101457.59
2024-02-13T18:15:28.285Z,101458.66
2024-02-13T18:17:56.784Z,101463.63
2024-02-13T18:20:24.034Z,101460.06
2024-02-13T18:22:51.346Z,101456.06
2024-02-13T18:25:17.988Z,101454.28
2024-02-13T18:27:44.789Z,101457.53
2024-02-13T18:30:13.804Z,101451.97
2024-02-13T18:32:40.582Z,101449.88
2024-02-13T18:35:10.405Z,101447.63
2024-02-13T18:37:38.205Z,101451.00
2024-02-13T18:40:06.982Z,101451.41
2024-02-13T18:42:33.717Z,101437.41
2024-02-13T18:45:00.544Z,101440.88
2024-02-13T18:47:29.749Z,101449.50
2024-02-13T18:49:56.585Z,101451.22
2024-02-13T18:52:24.670Z,101442.94
2024-02-13T18:54:51.326Z,101443.63
2024-02-13T18:57:17.990Z,101439.63
2024-02-13T18:59:45.122Z,101433.81
2024-02-13T19:02:11.757Z,101425.19
2024-02-13T19:04:39.820Z,101423.94
2024-02-13T19:07:06.584Z,101429.41
2024-02-13T19:09:33.243Z,101427.16
2024-02-13T19:11:59.923Z,101428.88
2024-02-13T19:14:26.548Z,101425.47
2024-02-13T19:16:54.497Z,101432.28
2024-02-13T19:19:21.185Z,101425.75
2024-02-13T19:21:49.220Z,101394.06
2024-02-13T19:24:16.151Z,101416.94
2024-02-13T19:26:42.897Z,101419.91
2024-02-13T19:29:09.474Z,101416.31
2024-02-13T19:31:36.016Z,101414.72
2024-02-13T19:34:02.977Z,101417.69
2024-02-13T19:36:31.542Z,101415.97
2024-02-13T19:39:02.960Z,101413.94
2024-02-13T19:41:29.650Z,101412.19
2024-02-13T19:43:56.233Z,101416.03
2024-02-13T19:46:24.134Z,101415.28
2024-02-13T19:48:52.245Z,101401.75
2024-02-13T19:51:19.394Z,101400.47
2024-02-13T19:53:46.586Z,101405.16
2024-02-13T19:56:15.448Z,101392.00
2024-02-13T19:58:43.399Z,101385.22
2024-02-13T20:01:10.327Z,101398.06
2024-02-13T20:03:37.762Z,101390.25
2024-02-13T20:06:04.703Z,101392.50
2024-02-13T20:08:31.652Z,101388.03
2024-02-13T20:10:58.478Z,101390.44
2024-02-13T20:13:26.637Z,101384.72
2024-02-13T20:15:53.237Z,101383.94
2024-02-13T20:18:20.348Z,101387.59
2024-02-13T20:20:47.357Z,101384.88
2024-02-13T20:23:14.057Z,101387.56
2024-02-13T20:25:40.681Z,101379.00
2024-02-13T20:28:09.186Z,101376.72
2024-02-13T20:30:40.114Z,101371.00
2024-02-13T20:33:07.402Z,101375.19
2024-02-13T20:35:34.084Z,101382.81
2024-02-13T20:38:01.049Z,101377.31
2024-02-13T20:40:27.704Z,101378.63
2024-02-13T20:42:54.394Z,101373.97
2024-02-13T20:45:23.550Z,101369.13
2024-02-13T20:47:55.176Z,101376.50
2024-02-13T20:50:22.125Z,101376.72
2024-02-13T20:52:48.859Z,101377.72
2024-02-13T20:55:16.892Z,101373.81
2024-02-13T20:57:44.446Z,101370.13
2024-02-13T21:00:15.455Z,101365.81
2024-02-13T21:02:43.147Z,101365.66
2024-02-13T21:05:11.360Z,101375.13
2024-02-13T21:07:38.214Z,101365.34
2024-02-13T21:10:07.124Z,101367.09
2024-02-13T21:12:33.815Z,101372.19
2024-02-13T21:15:00.654Z,101372.59
2024-02-13T21:17:28.303Z,101366.41
2024-02-13T21:20:00.758Z,101365.88
2024-02-13T21:22:47.591Z,101379.66
2024-02-13T21:25:14.175Z,101360.97
2024-02-13T21:27:40.810Z,101348.41
2024-02-13T21:30:08.304Z,101368.16
2024-02-13T21:32:36.091Z,101366.28
2024-02-13T21:35:04.151Z,101364.81
2024-02-13T21:37:33.544Z,101354.22
2024-02-13T21:40:00.218Z,101358.88
2024-02-13T21:42:26.813Z,101361.88
2024-02-13T21:44:53.441Z,101358.13
2024-02-13T21:47:20.153Z,101355.34
2024-02-13T21:49:46.928Z,101362.44
2024-02-13T21:52:13.577Z,101350.81
2024-02-13T21:54:41.490Z,101366.34
2024-02-13T21:57:08.145Z,101359.94
2024-02-13T21:59:34.871Z,101370.50
2024-02-13T22:02:01.582Z,101358.13
2024-02-13T22:04:31.293Z,101363.66
2024-02-13T22:06:59.949Z,101365.06
2024-02-13T22:09:26.390Z,101360.97
2024-02-13T22:11:54.404Z,101361.34
2024-02-13T22:14:21.381Z,101364.41
2024-02-13T22:16:50.271Z,101361.34
2024-02-13T22:19:17.057Z,101360.94
2024-02-13T22:21:43.836Z,101359.50
2024-02-13T22:24:10.666Z,101348.47
2024-02-13T22:26:38.170Z,101358.00
2024-02-13T22:29:07.446Z,101351.00
2024-02-13T22:31:34.700Z,101344.66
2024-02-13T22:34:01.542Z,101344.66
2024-02-13T22:36:28.259Z,101350.94
2024-02-13T22:38:55.478Z,101342.97
2024-02-13T22:41:23.235Z,101353.03
2024-02-13T22:43:49.979Z,101341.63
2024-02-13T22:46:17.907Z,101342.38
2024-02-13T22:48:44.641Z,101341.91
2024-02-13T22:51:12.021Z,101328.63
2024-02-13T22:53:38.726Z,101342.06
2024-02-13T22:56:06.056Z,101337.66
2024-02-13T22:58:33.024Z,101334.50
2024-02-13T23:01:00.227Z,101332.50
2024-02-13T23:03:29.380Z,101330.38
2024-02-13T23:06:00.625Z,101332.19
2024-02-13T23:08:29.626Z,101326.53
2024-02-13T23:10:56.842Z,101318.31
2024-02-13T23:13:28.642Z,101308.69
2024-02-13T23:16:01.313Z,101318.53
2024-02-13T23:18:29.527Z,101319.13
2024-02-13T23:20:56.435Z,101316.06
2024-02-13T23:23:23.086Z,101314.78
2024-02-13T23:25:49.925Z,101312.75
2024-02-13T23:28:17.435Z,101316.59
2024-02-13T23:30:44.808Z,101312.72
2024-02-13T23:33:12.191Z,101310.06
2024-02-13T23:35:40.344Z,101309.94
2024-02-13T23:38:09.202Z,101306.53
2024-02-13T23:40:36.292Z,101304.97
2024-02-13T23:43:03.008Z,101307.03
2024-02-13T23:45:29.654Z,101312.38
2024-02-13T23:47:56.299Z,101314.06
2024-02-13T23:50:23.011Z,101317.28
2024-02-13T23:52:51.236Z,101307.53
2024-02-13T23:55:17.881Z,101309.28
2024-02-13T23:57:47.206Z,101315.47
